マニラ/ニノイ・アキノ の空港の天気 - METARとTAF

ニノイ・アキノ国際空港 ( RPLL / MNL ) - フィリピン マニラ
飛行場実況気象(Metar)
観測時間05/29 07:00 PHT (05/28 23:00 UTC)
風向・風速不定 1m/s
視程10km以上
天気現象
少しの雲 雲底高度 760m
全天の4割程度の雲 雲底高度 3050m
気温28℃
湿度89%
気圧1009hPa
METARRPLL 282300Z VRB01KT 9999 FEW025 SCT100 28/26 Q1009 NOSIG RMK A2980
過去の天気等 Google飛行場航空写真 Wunderground天気予報

過去48時間のMETAR

飛行場予報(TAF)
発表時間: 5/29 01:00 PHT (5/28 17:00 UTC)
予報対象時間: 29日2時 PHT ~ 30日8時 PHT
風向・風速西南西 3m/s
視程10km以上
少しの雲 雲底高度 760m
全天の4割程度の雲 雲底高度 3050m
29日2時 PHT ~ 29日8時 PHT に一時的に
風向・風速不定 1m/s
29日11時 PHT ~ 29日17時 PHT に一時的に
風向・風速西南西 5m/s
天気現象弱い雷雨
少しの積乱雲 雲底高度 670m
全天の4割程度の雲 雲底高度 700m
全天を覆う雲 雲底高度 2740m
TAF RPLL 281700Z 2818/2924 25005KT 9999 FEW025 SCT100 TX33/2906Z TN26/2821Z
TEMPO 2818/2824 VRB02KT
TEMPO 2903/2909 25010KT -TSRA FEW022CB SCT023 OVC090